Terminal Aerodrome Forecast
Issued by NWS Cleveland, OH

Home | Current Version | Previous Version | Graphics & Text | Print | Product List | Glossary On
Versions: 1 2 3 4 5 6 7 8 9 10 11 12
000
FTUS41 KCLE 022341
TAFYNG
TAF
KYNG 022341Z 0300/0324 36008KT P6SM SKC
     FM030300 06005KT P6SM SCT250
     FM031300 08008KT P6SM BKN250
     FM031900 02008KT P6SM SCT045 OVC250=

USA.gov is the U.S. government's official web portal to all federal, state and local government web resources and services.